Time;durP1;ratioP1;P1;durP2;ratioP2;P2;SDS_P1;SDS_P2;PMS_P1;PMS_P2;Temp;Humidity;BMP_temperature;BMP_pressure;BME280_temperature;BME280_humidity;BME280_pressure;Samples;Min_cycle;Max_cycle;Signal;HPM_P1;HPM_P2
2021/11/03 00:02:17;;;;;;;6.20;4.57;;;;;;;;;;5063810;28;20194;-81
2021/11/03 00:04:44;;;;;;;5.57;3.88;;;;;;;;;;5066338;28;20198;-82
2021/11/03 00:07:13;;;;;;;4.75;4.00;;;;;;;;;;5070216;28;20281;-82
2021/11/03 00:09:42;;;;;;;6.40;4.82;;;;;;;;;;5067111;28;20210;-78
2021/11/03 00:12:11;;;;;;;6.43;4.35;;;;;;;;;;5072369;28;20194;-79
2021/11/03 00:14:40;;;;;;;5.07;4.28;;;;;;;;;;5070289;28;20205;-79
2021/11/03 00:17:07;;;;;;;6.63;4.90;;;;;;;;;;5061185;28;20207;-78
2021/11/03 00:19:50;;;;;;;7.60;4.65;;;;;;;;;;5067220;28;20229;-80
2021/11/03 00:22:17;;;;;;;7.43;5.75;;;;;;;;;;5052420;28;20216;-80
2021/11/03 00:24:44;;;;;;;4.30;3.90;;;;;;;;;;5067009;28;20216;-80
2021/11/03 00:27:12;;;;;;;4.82;4.05;;;;;;;;;;5060929;28;20198;-79
2021/11/03 00:29:41;;;;;;;4.47;3.75;;;;;;;;;;5068716;28;20575;-80
2021/11/03 00:32:10;;;;;;;4.65;4.10;;;;;;;;;;5059880;28;20202;-79
2021/11/03 00:34:38;;;;;;;4.40;4.00;;;;;;;;;;5065932;28;20201;-78
2021/11/03 00:37:24;;;;;;;5.30;4.40;;;;;;;;;;5066969;28;20186;-78
2021/11/03 00:39:51;;;;;;;5.10;3.95;;;;;;;;;;5050334;28;20322;-79
2021/11/03 00:42:18;;;;;;;4.53;4.00;;;;;;;;;;5049250;28;20206;-79
2021/11/03 00:44:47;;;;;;;4.53;4.13;;;;;;;;;;5062250;28;20551;-81
2021/11/03 00:47:14;;;;;;;4.90;4.13;;;;;;;;;;5068820;28;20259;-80
2021/11/03 00:49:41;;;;;;;4.75;4.30;;;;;;;;;;5062754;28;20218;-80
2021/11/03 00:52:09;;;;;;;4.35;3.95;;;;;;;;;;5066121;28;20193;-81
2021/11/03 00:54:37;;;;;;;5.43;4.63;;;;;;;;;;5070184;28;20658;-81
2021/11/03 00:57:04;;;;;;;6.72;3.80;;;;;;;;;;5057440;28;20200;-80
2021/11/03 00:59:31;;;;;;;5.78;4.35;;;;;;;;;;5063466;28;20221;-78
2021/11/03 01:02:00;;;;;;;4.43;4.03;;;;;;;;;;5069777;28;20548;-80
2021/11/03 01:04:27;;;;;;;4.60;3.72;;;;;;;;;;5064861;28;20198;-79
2021/11/03 01:06:54;;;;;;;5.68;4.15;;;;;;;;;;5067048;28;20198;-81
2021/11/03 01:09:21;;;;;;;5.00;3.80;;;;;;;;;;5070156;28;20208;-81
2021/11/03 01:11:49;;;;;;;4.38;3.65;;;;;;;;;;5064789;28;20285;-81
2021/11/03 01:14:17;;;;;;;4.55;3.90;;;;;;;;;;5067226;28;20209;-82
2021/11/03 01:16:44;;;;;;;4.88;3.90;;;;;;;;;;5067873;28;20197;-80
2021/11/03 01:19:13;;;;;;;4.60;4.20;;;;;;;;;;5067168;28;20531;-80
2021/11/03 01:21:41;;;;;;;4.95;3.97;;;;;;;;;;5057707;28;20194;-77
2021/11/03 01:24:09;;;;;;;4.70;4.18;;;;;;;;;;5078294;28;20228;-78
2021/11/03 01:26:36;;;;;;;4.82;4.05;;;;;;;;;;5056538;28;20202;-77
2021/11/03 01:29:04;;;;;;;4.00;3.70;;;;;;;;;;5061051;28;20210;-78
2021/11/03 01:31:31;;;;;;;5.43;3.97;;;;;;;;;;5067040;28;20221;-78
2021/11/03 01:33:59;;;;;;;5.22;4.00;;;;;;;;;;5058920;28;20202;-79
2021/11/03 01:36:27;;;;;;;6.13;4.75;;;;;;;;;;5067370;28;20651;-80
2021/11/03 01:38:55;;;;;;;5.95;4.80;;;;;;;;;;5067458;28;20225;-77
2021/11/03 01:41:22;;;;;;;5.50;4.95;;;;;;;;;;5069018;28;20194;-79
2021/11/03 01:43:50;;;;;;;5.95;4.60;;;;;;;;;;5066509;28;20194;-79
2021/11/03 01:46:19;;;;;;;5.50;4.93;;;;;;;;;;5058313;28;20286;-78
2021/11/03 01:48:46;;;;;;;6.10;4.45;;;;;;;;;;5064913;28;20194;-77
2021/11/03 01:51:19;;;;;;;6.85;5.22;;;;;;;;;;5064732;28;20213;-81
2021/11/03 01:53:48;;;;;;;6.85;4.90;;;;;;;;;;5067879;28;20557;-80
2021/11/03 01:56:16;;;;;;;6.38;5.13;;;;;;;;;;5068257;28;20205;-79
2021/11/03 01:58:45;;;;;;;5.65;4.50;;;;;;;;;;5055745;28;20275;-79
2021/11/03 02:01:12;;;;;;;4.90;4.35;;;;;;;;;;5055491;28;20191;-79
2021/11/03 02:03:42;;;;;;;5.85;5.13;;;;;;;;;;5058419;28;20194;-81
2021/11/03 02:06:10;;;;;;;8.70;4.82;;;;;;;;;;5065012;28;20205;-80
2021/11/03 02:08:41;;;;;;;5.85;4.75;;;;;;;;;;5063998;28;20198;-78
2021/11/03 02:11:11;;;;;;;5.00;4.50;;;;;;;;;;5062236;28;20193;-79
2021/11/03 02:13:39;;;;;;;4.90;4.25;;;;;;;;;;5067462;28;20194;-79
2021/11/03 02:16:08;;;;;;;8.25;4.88;;;;;;;;;;5061346;28;20197;-78
2021/11/03 02:18:36;;;;;;;5.90;5.03;;;;;;;;;;5082809;28;20197;-80
2021/11/03 02:21:04;;;;;;;5.80;4.60;;;;;;;;;;5059832;28;20191;-79
2021/11/03 02:23:34;;;;;;;5.53;5.00;;;;;;;;;;5065364;28;20190;-78
2021/11/03 02:26:07;;;;;;;5.45;4.95;;;;;;;;;;5066455;28;20198;-81
2021/11/03 02:28:35;;;;;;;4.22;3.85;;;;;;;;;;5053928;28;20217;-78
2021/11/03 02:31:02;;;;;;;5.90;4.70;;;;;;;;;;5063843;28;20580;-81
2021/11/03 02:33:30;;;;;;;5.85;4.47;;;;;;;;;;5068218;28;20194;-78
2021/11/03 02:35:58;;;;;;;6.57;4.93;;;;;;;;;;5105170;28;20618;-81
2021/11/03 02:38:31;;;;;;;6.40;4.57;;;;;;;;;;5067095;28;20587;-78
2021/11/03 02:41:01;;;;;;;4.97;4.05;;;;;;;;;;5068393;28;20225;-80
2021/11/03 02:43:31;;;;;;;5.82;5.05;;;;;;;;;;5071567;28;20534;-78
2021/11/03 02:45:59;;;;;;;6.85;5.40;;;;;;;;;;5071995;28;20198;-79
2021/11/03 02:48:28;;;;;;;8.05;4.97;;;;;;;;;;5070614;28;20227;-78
2021/11/03 02:50:56;;;;;;;8.50;5.20;;;;;;;;;;5077635;28;20712;-80
2021/11/03 02:53:24;;;;;;;7.10;5.57;;;;;;;;;;5078313;28;20183;-79
2021/11/03 02:55:51;;;;;;;8.52;5.50;;;;;;;;;;5060805;28;20205;-80
2021/11/03 02:58:18;;;;;;;5.60;5.10;;;;;;;;;;5069809;28;20552;-80
2021/11/03 03:00:48;;;;;;;7.03;5.70;;;;;;;;;;5071638;28;20225;-82
2021/11/03 03:03:15;;;;;;;7.88;5.20;;;;;;;;;;5068835;28;20198;-81
2021/11/03 03:05:48;;;;;;;7.03;5.50;;;;;;;;;;5072169;28;20195;-81
2021/11/03 03:08:15;;;;;;;8.13;6.13;;;;;;;;;;5065542;28;20205;-78
2021/11/03 03:10:42;;;;;;;7.13;5.78;;;;;;;;;;5073294;28;20696;-80
2021/11/03 03:13:09;;;;;;;8.88;7.13;;;;;;;;;;5071113;28;20187;-79
2021/11/03 03:15:36;;;;;;;7.43;6.63;;;;;;;;;;5063124;28;20222;-79
2021/11/03 03:18:05;;;;;;;13.50;7.13;;;;;;;;;;5067475;28;20320;-79
2021/11/03 03:20:32;;;;;;;10.77;7.50;;;;;;;;;;5063696;28;20236;-79
2021/11/03 03:22:59;;;;;;;10.13;7.00;;;;;;;;;;5060842;28;20216;-79
2021/11/03 03:25:28;;;;;;;9.77;7.50;;;;;;;;;;5071435;28;20201;-78
2021/11/03 03:27:55;;;;;;;8.95;7.28;;;;;;;;;;5066835;28;20193;-79
2021/11/03 03:30:22;;;;;;;9.50;7.40;;;;;;;;;;5071248;28;20236;-79
2021/11/03 03:32:49;;;;;;;8.80;7.07;;;;;;;;;;5070746;28;20201;-79
2021/11/03 03:35:18;;;;;;;8.20;6.68;;;;;;;;;;5064997;28;20288;-79
2021/11/03 03:37:46;;;;;;;8.90;7.03;;;;;;;;;;5065781;28;20662;-78
2021/11/03 03:40:13;;;;;;;8.52;6.57;;;;;;;;;;5065988;28;20324;-80
2021/11/03 03:42:41;;;;;;;9.13;7.35;;;;;;;;;;5050304;28;20203;-79
2021/11/03 03:45:09;;;;;;;9.80;8.23;;;;;;;;;;5053635;28;20209;-80
2021/11/03 03:47:36;;;;;;;8.93;7.50;;;;;;;;;;5061682;28;20197;-79
2021/11/03 03:50:03;;;;;;;8.27;6.90;;;;;;;;;;5070556;28;20216;-80
2021/11/03 03:52:32;;;;;;;10.43;7.72;;;;;;;;;;5067516;28;20198;-79
2021/11/03 03:54:59;;;;;;;9.65;7.00;;;;;;;;;;5067227;28;20190;-78
2021/11/03 03:57:26;;;;;;;10.15;8.38;;;;;;;;;;5059140;28;20202;-81
2021/11/03 03:59:53;;;;;;;12.07;8.55;;;;;;;;;;5055759;28;20750;-80
2021/11/03 04:02:20;;;;;;;12.52;8.27;;;;;;;;;;5063572;28;20785;-79
2021/11/03 04:04:48;;;;;;;9.63;7.90;;;;;;;;;;5061913;28;20596;-79
2021/11/03 04:07:15;;;;;;;12.45;7.68;;;;;;;;;;5074003;28;20197;-79
2021/11/03 04:09:43;;;;;;;11.45;7.40;;;;;;;;;;5066346;28;20218;-80
2021/11/03 04:12:11;;;;;;;10.52;7.78;;;;;;;;;;5063355;28;20512;-80
2021/11/03 04:14:38;;;;;;;10.35;7.60;;;;;;;;;;5069912;28;20200;-78
2021/11/03 04:17:05;;;;;;;11.05;8.57;;;;;;;;;;5065165;28;20194;-79
2021/11/03 04:19:32;;;;;;;10.50;8.38;;;;;;;;;;5069622;28;20241;-79
2021/11/03 04:22:00;;;;;;;12.23;8.55;;;;;;;;;;5069737;28;20198;-79
2021/11/03 04:24:27;;;;;;;9.00;7.45;;;;;;;;;;5064665;28;20205;-79
2021/11/03 04:26:56;;;;;;;11.95;8.77;;;;;;;;;;5062212;28;20202;-78
2021/11/03 04:29:23;;;;;;;10.70;8.05;;;;;;;;;;5067681;28;20222;-77
2021/11/03 04:31:51;;;;;;;11.10;8.20;;;;;;;;;;5068793;28;20229;-78
2021/11/03 04:34:18;;;;;;;13.23;9.48;;;;;;;;;;5065722;28;20559;-80
2021/11/03 04:36:46;;;;;;;12.63;8.55;;;;;;;;;;5101370;28;20584;-79
2021/11/03 04:39:16;;;;;;;12.18;8.35;;;;;;;;;;5092601;28;20285;-77
2021/11/03 04:41:43;;;;;;;12.63;8.30;;;;;;;;;;5065233;28;20234;-77
2021/11/03 04:44:11;;;;;;;12.75;9.40;;;;;;;;;;5066703;28;20567;-80
2021/11/03 04:46:39;;;;;;;11.23;8.38;;;;;;;;;;5065836;28;20216;-79
2021/11/03 04:49:07;;;;;;;10.73;8.20;;;;;;;;;;5064314;28;20626;-79
2021/11/03 04:51:34;;;;;;;14.15;8.65;;;;;;;;;;5067442;28;20200;-78
2021/11/03 04:54:01;;;;;;;13.00;8.73;;;;;;;;;;5062968;28;20195;-78
2021/11/03 04:56:32;;;;;;;12.77;9.88;;;;;;;;;;5064429;28;20289;-79
2021/11/03 04:58:59;;;;;;;11.93;8.45;;;;;;;;;;5069531;28;20221;-78
2021/11/03 05:01:28;;;;;;;11.38;8.52;;;;;;;;;;5059611;28;20225;-79
2021/11/03 05:03:55;;;;;;;12.65;8.25;;;;;;;;;;5096403;28;20191;-79
2021/11/03 05:06:25;;;;;;;12.23;9.13;;;;;;;;;;5067916;28;20198;-79
2021/11/03 05:08:54;;;;;;;13.35;9.18;;;;;;;;;;5065351;28;20233;-77
2021/11/03 05:11:21;;;;;;;13.55;9.05;;;;;;;;;;5069915;28;20198;-78
2021/11/03 05:13:49;;;;;;;12.40;8.60;;;;;;;;;;5069363;28;20197;-79
2021/11/03 05:16:18;;;;;;;13.88;9.45;;;;;;;;;;5065438;28;20194;-79
2021/11/03 05:18:46;;;;;;;12.57;8.93;;;;;;;;;;5065349;28;20340;-79
2021/11/03 05:21:13;;;;;;;11.02;8.50;;;;;;;;;;5067102;28;20217;-78
2021/11/03 05:23:41;;;;;;;13.40;9.95;;;;;;;;;;5068695;28;20193;-80
2021/11/03 05:26:08;;;;;;;11.23;8.80;;;;;;;;;;5064883;28;20200;-79
2021/11/03 05:28:39;;;;;;;14.18;9.73;;;;;;;;;;5069154;28;20200;-79
2021/11/03 05:31:06;;;;;;;14.07;10.27;;;;;;;;;;5067199;28;20560;-78
2021/11/03 05:33:34;;;;;;;11.45;8.60;;;;;;;;;;5062709;28;20189;-78
2021/11/03 05:36:02;;;;;;;14.68;10.15;;;;;;;;;;5061255;28;20198;-79
2021/11/03 05:38:34;;;;;;;19.52;9.80;;;;;;;;;;5057223;28;20198;-78
2021/11/03 05:41:01;;;;;;;14.75;9.70;;;;;;;;;;5065102;28;20214;-78
2021/11/03 05:43:28;;;;;;;14.20;10.02;;;;;;;;;;5065584;28;20201;-79
2021/11/03 05:45:55;;;;;;;16.48;10.30;;;;;;;;;;5059797;28;20197;-77
2021/11/03 05:48:26;;;;;;;15.32;10.07;;;;;;;;;;5064547;28;20639;-78
2021/11/03 05:50:53;;;;;;;13.50;9.02;;;;;;;;;;5063366;28;20244;-79
2021/11/03 05:53:22;;;;;;;14.65;10.48;;;;;;;;;;5058466;28;20202;-78
2021/11/03 05:55:49;;;;;;;15.45;9.85;;;;;;;;;;5066969;28;20186;-78
2021/11/03 05:58:16;;;;;;;14.82;9.75;;;;;;;;;;5068348;28;20193;-79
2021/11/03 06:00:43;;;;;;;14.85;9.85;;;;;;;;;;5068669;28;20226;-79
2021/11/03 06:03:10;;;;;;;12.07;8.63;;;;;;;;;;5070483;28;20193;-78
2021/11/03 06:05:38;;;;;;;12.48;9.25;;;;;;;;;;5078084;28;20193;-79
2021/11/03 06:08:06;;;;;;;11.30;8.70;;;;;;;;;;5070516;28;20185;-79
2021/11/03 06:10:40;;;;;;;14.70;9.80;;;;;;;;;;5070735;28;20214;-78
2021/11/03 06:13:08;;;;;;;14.98;9.15;;;;;;;;;;5077991;28;20276;-78
2021/11/03 06:15:37;;;;;;;11.65;8.88;;;;;;;;;;5070004;28;20198;-81
2021/11/03 06:18:05;;;;;;;12.13;8.85;;;;;;;;;;5071551;28;20198;-79
2021/11/03 06:20:32;;;;;;;11.65;8.45;;;;;;;;;;5100945;28;20222;-78
2021/11/03 06:22:59;;;;;;;12.52;8.65;;;;;;;;;;5061343;28;20283;-78
2021/11/03 06:25:26;;;;;;;10.63;8.23;;;;;;;;;;5066016;28;20268;-78
2021/11/03 06:27:56;;;;;;;12.25;8.27;;;;;;;;;;5072429;28;20194;-81
2021/11/03 06:30:24;;;;;;;11.88;8.77;;;;;;;;;;5066893;28;20222;-80
2021/11/03 06:32:51;;;;;;;10.35;8.15;;;;;;;;;;5070234;28;20224;-78
2021/11/03 06:35:18;;;;;;;12.65;8.75;;;;;;;;;;5041396;28;20218;-82
2021/11/03 06:37:46;;;;;;;11.18;7.75;;;;;;;;;;5062831;28;20202;-82
2021/11/03 06:40:15;;;;;;;10.18;8.35;;;;;;;;;;5067920;28;20222;-78
2021/11/03 06:42:42;;;;;;;12.45;8.98;;;;;;;;;;5069345;28;20198;-77
2021/11/03 06:45:12;;;;;;;10.88;7.97;;;;;;;;;;5072528;28;20190;-79
2021/11/03 06:47:39;;;;;;;16.42;8.02;;;;;;;;;;5068576;28;20198;-82
2021/11/03 06:50:07;;;;;;;12.90;7.10;;;;;;;;;;5057020;28;20218;-83
2021/11/03 06:52:35;;;;;;;10.80;8.20;;;;;;;;;;5065232;28;20204;-80
2021/11/03 06:55:02;;;;;;;11.27;8.38;;;;;;;;;;5066509;28;20344;-77
2021/11/03 06:57:30;;;;;;;10.60;7.00;;;;;;;;;;5064291;28;20206;-78
2021/11/03 06:59:58;;;;;;;12.00;8.10;;;;;;;;;;5071790;28;20213;-79
2021/11/03 07:02:27;;;;;;;11.00;7.88;;;;;;;;;;5066308;28;20574;-78
2021/11/03 07:04:54;;;;;;;10.75;7.20;;;;;;;;;;5072675;28;20198;-80
2021/11/03 07:07:21;;;;;;;10.45;8.05;;;;;;;;;;5068338;28;20352;-81
2021/11/03 07:09:54;;;;;;;13.07;8.27;;;;;;;;;;5061269;28;20214;-81
2021/11/03 07:12:21;;;;;;;10.38;7.68;;;;;;;;;;5071457;28;20186;-78
2021/11/03 07:14:49;;;;;;;11.10;7.50;;;;;;;;;;5067111;28;20673;-79
2021/11/03 07:17:16;;;;;;;12.73;7.97;;;;;;;;;;5064697;28;20190;-78
2021/11/03 07:19:46;;;;;;;10.95;7.70;;;;;;;;;;5072426;28;20237;-77
2021/11/03 07:22:13;;;;;;;9.45;7.50;;;;;;;;;;5067159;28;20575;-78
2021/11/03 07:24:50;;;;;;;9.25;8.05;;;;;;;;;;5066634;28;20194;-79
2021/11/03 07:27:18;;;;;;;11.23;7.88;;;;;;;;;;5066918;28;20589;-84
2021/11/03 07:29:45;;;;;;;11.07;8.13;;;;;;;;;;5067696;28;20563;-83
2021/11/03 07:32:12;;;;;;;11.63;8.10;;;;;;;;;;5074386;28;20655;-84
2021/11/03 07:34:40;;;;;;;9.15;7.75;;;;;;;;;;5068962;28;20197;-82
2021/11/03 07:37:08;;;;;;;12.70;9.20;;;;;;;;;;5065391;28;20209;-79
2021/11/03 07:39:36;;;;;;;11.40;7.60;;;;;;;;;;5057928;28;20690;-81
2021/11/03 07:42:03;;;;;;;10.95;8.05;;;;;;;;;;5060913;28;20249;-80
2021/11/03 07:44:30;;;;;;;11.02;7.97;;;;;;;;;;5071866;28;20285;-81
2021/11/03 07:46:57;;;;;;;8.00;7.00;;;;;;;;;;5070590;28;20651;-81
2021/11/03 07:49:24;;;;;;;9.63;7.05;;;;;;;;;;5077749;28;20210;-81
2021/11/03 07:51:52;;;;;;;10.13;8.15;;;;;;;;;;5066704;28;20639;-82
2021/11/03 07:54:20;;;;;;;11.32;7.80;;;;;;;;;;5064476;28;20556;-84
2021/11/03 07:56:47;;;;;;;11.65;8.23;;;;;;;;;;5069227;28;20204;-82
2021/11/03 07:59:19;;;;;;;9.32;7.35;;;;;;;;;;5059746;28;20206;-83
2021/11/03 08:01:46;;;;;;;9.80;8.05;;;;;;;;;;5071554;28;20225;-83
2021/11/03 08:04:13;;;;;;;8.15;6.60;;;;;;;;;;5071303;28;20206;-83
2021/11/03 08:06:41;;;;;;;9.77;7.30;;;;;;;;;;5058647;28;20194;-82
2021/11/03 08:09:08;;;;;;;8.88;6.65;;;;;;;;;;5072306;28;20229;-80
2021/11/03 08:11:46;;;;;;;8.85;6.78;;;;;;;;;;5069713;28;20198;-83
2021/11/03 08:14:14;;;;;;;9.60;6.63;;;;;;;;;;5063202;28;20197;-80
2021/11/03 08:16:46;;;;;;;9.38;7.18;;;;;;;;;;5067315;28;20208;-83
2021/11/03 08:19:13;;;;;;;10.43;7.32;;;;;;;;;;5064706;28;20218;-84
2021/11/03 08:21:40;;;;;;;9.80;6.45;;;;;;;;;;5070288;28;20214;-77
2021/11/03 08:24:08;;;;;;;8.45;6.53;;;;;;;;;;5068882;28;20583;-81
2021/11/03 08:29:17;;;;;;;8.98;7.00;;;;;;;;;;5065062;28;20960;-81
2021/11/03 08:31:44;;;;;;;9.23;6.32;;;;;;;;;;5058162;28;20226;-78
2021/11/03 08:34:12;;;;;;;7.30;6.15;;;;;;;;;;5066339;28;20190;-81
2021/11/03 08:36:39;;;;;;;15.23;7.20;;;;;;;;;;5064967;28;20694;-79
2021/11/03 08:39:07;;;;;;;12.70;6.50;;;;;;;;;;5067271;28;20468;-81
2021/11/03 08:41:34;;;;;;;10.48;7.80;;;;;;;;;;5049666;28;20612;-83
2021/11/03 08:44:02;;;;;;;11.65;7.72;;;;;;;;;;5068125;28;20213;-78
2021/11/03 08:46:30;;;;;;;16.83;7.15;;;;;;;;;;5068028;28;20190;-78
2021/11/03 08:48:59;;;;;;;8.50;6.60;;;;;;;;;;5066759;28;20218;-80
2021/11/03 08:51:28;;;;;;;15.30;7.30;;;;;;;;;;5066511;28;20182;-83
2021/11/03 08:53:55;;;;;;;9.77;6.30;;;;;;;;;;5046126;28;20441;-78
2021/11/03 08:56:23;;;;;;;9.48;6.55;;;;;;;;;;5041485;28;20547;-77
2021/11/03 08:58:51;;;;;;;8.20;6.50;;;;;;;;;;5055548;28;20545;-79
2021/11/03 09:01:19;;;;;;;8.70;6.30;;;;;;;;;;5064454;28;20488;-79
2021/11/03 09:03:47;;;;;;;9.68;6.55;;;;;;;;;;5068960;28;20818;-82
2021/11/03 09:06:15;;;;;;;10.00;7.18;;;;;;;;;;5060213;28;20201;-82
2021/11/03 09:08:46;;;;;;;10.18;7.07;;;;;;;;;;5058741;28;20194;-78
2021/11/03 09:11:13;;;;;;;11.25;7.60;;;;;;;;;;5062778;28;20190;-81
2021/11/03 09:13:40;;;;;;;9.73;7.20;;;;;;;;;;5068788;28;20191;-83
2021/11/03 09:16:08;;;;;;;9.83;7.30;;;;;;;;;;5064918;28;20197;-78
2021/11/03 09:18:35;;;;;;;9.80;7.50;;;;;;;;;;5060666;28;21016;-80
2021/11/03 09:21:07;;;;;;;6.60;6.00;;;;;;;;;;5069304;28;20444;-82
2021/11/03 09:23:35;;;;;;;13.40;7.50;;;;;;;;;;5066366;28;20456;-79
2021/11/03 09:26:02;;;;;;;9.10;7.13;;;;;;;;;;5069723;28;20190;-77
2021/11/03 09:28:31;;;;;;;10.20;7.30;;;;;;;;;;5069337;28;20552;-80
2021/11/03 09:30:59;;;;;;;9.23;7.45;;;;;;;;;;5058777;28;20648;-79
2021/11/03 09:33:28;;;;;;;8.13;6.70;;;;;;;;;;5065285;28;20534;-78
2021/11/03 09:35:56;;;;;;;9.43;7.67;;;;;;;;;;5066010;28;20669;-79
2021/11/03 09:38:25;;;;;;;9.53;8.17;;;;;;;;;;5062055;28;20465;-77
2021/11/03 09:40:54;;;;;;;7.60;6.80;;;;;;;;;;5069131;28;20812;-78
2021/11/03 09:43:30;;;;;;;8.70;6.40;;;;;;;;;;5065945;28;20986;-78
2021/11/03 09:45:58;;;;;;;10.80;6.60;;;;;;;;;;5089638;28;20840;-81
2021/11/03 09:48:30;;;;;;;8.77;6.87;;;;;;;;;;5065219;28;20433;-81
2021/11/03 09:50:59;;;;;;;8.93;6.33;;;;;;;;;;5065065;28;20487;-77
2021/11/03 09:53:31;;;;;;;9.23;6.00;;;;;;;;;;5046583;28;20465;-78
2021/11/03 09:55:59;;;;;;;7.47;6.10;;;;;;;;;;5048814;28;20447;-77
2021/11/03 09:58:33;;;;;;;8.87;6.97;;;;;;;;;;5086936;28;20816;-76
2021/11/03 10:01:03;;;;;;;7.73;6.20;;;;;;;;;;5063913;28;20424;-81
2021/11/03 10:03:35;;;;;;;8.67;6.90;;;;;;;;;;5064689;28;20455;-79
2021/11/03 10:06:06;;;;;;;9.00;7.00;;;;;;;;;;5065583;28;20466;-77
2021/11/03 10:08:39;;;;;;;10.33;7.40;;;;;;;;;;5098850;28;20968;-81
2021/11/03 10:11:14;;;;;;;9.57;7.90;;;;;;;;;;5061922;28;20509;-80
2021/11/03 10:13:41;;;;;;;11.77;7.00;;;;;;;;;;5100188;28;20447;-79
2021/11/03 10:16:24;;;;;;;12.10;7.60;;;;;;;;;;5065843;28;20429;-76
2021/11/03 10:18:57;;;;;;;11.40;7.70;;;;;;;;;;5063303;28;20483;-76
2021/11/03 10:21:25;;;;;;;8.83;6.57;;;;;;;;;;5068579;28;20440;-78
2021/11/03 10:23:55;;;;;;;14.43;8.50;;;;;;;;;;5065981;28;20875;-79
2021/11/03 10:26:23;;;;;;;8.73;7.63;;;;;;;;;;5062474;28;20464;-80
2021/11/03 10:28:52;;;;;;;9.60;6.77;;;;;;;;;;5064776;28;20452;-82
2021/11/03 10:31:23;;;;;;;15.50;8.67;;;;;;;;;;5063772;28;22124;-77
2021/11/03 10:33:51;;;;;;;11.40;8.03;;;;;;;;;;5066713;28;20429;-80
2021/11/03 10:36:20;;;;;;;9.43;7.80;;;;;;;;;;5067574;28;20448;-79
2021/11/03 10:38:50;;;;;;;9.47;7.97;;;;;;;;;;5061404;28;20487;-78
2021/11/03 10:41:22;;;;;;;10.83;8.60;;;;;;;;;;5065521;28;20460;-81
2021/11/03 10:43:59;;;;;;;9.63;8.50;;;;;;;;;;5065248;28;20460;-78
2021/11/03 10:46:29;;;;;;;15.17;8.60;;;;;;;;;;5065793;28;20444;-79
2021/11/03 10:49:10;;;;;;;14.60;9.00;;;;;;;;;;5063990;28;20548;-80
2021/11/03 10:51:39;;;;;;;10.87;9.00;;;;;;;;;;5067646;28;20968;-77
2021/11/03 10:54:11;;;;;;;17.57;10.57;;;;;;;;;;5070210;28;20528;-77
2021/11/03 10:56:51;;;;;;;11.30;8.40;;;;;;;;;;5103737;28;20459;-77
2021/11/03 10:59:28;;;;;;;13.47;8.50;;;;;;;;;;5071897;28;20541;-79
2021/11/03 11:01:56;;;;;;;14.30;9.67;;;;;;;;;;5096364;28;20486;-78
2021/11/03 11:04:24;;;;;;;10.90;8.50;;;;;;;;;;5074220;28;20444;-79
2021/11/03 11:06:52;;;;;;;11.77;8.90;;;;;;;;;;5065354;28;20460;-78
2021/11/03 11:09:23;;;;;;;11.00;8.00;;;;;;;;;;5063264;28;21032;-77
2021/11/03 11:11:57;;;;;;;10.00;7.77;;;;;;;;;;5069049;28;20433;-80
2021/11/03 11:14:25;;;;;;;9.53;7.10;;;;;;;;;;5064584;28;20577;-77
2021/11/03 11:16:56;;;;;;;10.00;7.63;;;;;;;;;;5099271;28;20463;-80
2021/11/03 11:19:31;;;;;;;12.27;8.03;;;;;;;;;;5071760;28;20467;-79
2021/11/03 11:22:01;;;;;;;10.43;8.43;;;;;;;;;;5065141;28;20480;-80
2021/11/03 11:24:32;;;;;;;9.67;7.90;;;;;;;;;;5072615;28;20793;-76
2021/11/03 11:27:06;;;;;;;9.53;7.30;;;;;;;;;;5105738;28;20440;-77
2021/11/03 11:29:37;;;;;;;11.30;7.10;;;;;;;;;;5072349;28;20459;-76
2021/11/03 11:32:06;;;;;;;10.60;6.97;;;;;;;;;;5067736;28;20470;-75
2021/11/03 11:34:41;;;;;;;11.23;8.57;;;;;;;;;;5065614;28;20464;-80
2021/11/03 11:37:11;;;;;;;10.97;8.37;;;;;;;;;;5068178;28;20956;-78
2021/11/03 11:39:43;;;;;;;12.30;8.33;;;;;;;;;;5069816;28;20471;-78
2021/11/03 11:42:14;;;;;;;12.27;7.70;;;;;;;;;;5071055;28;20491;-76
2021/11/03 11:44:46;;;;;;;13.40;8.13;;;;;;;;;;5065994;28;20456;-76
2021/11/03 11:47:18;;;;;;;8.87;7.17;;;;;;;;;;5064006;28;20452;-78
2021/11/03 11:49:48;;;;;;;11.25;7.80;;;;;;;;;;5066395;28;20488;-76
2021/11/03 11:52:20;;;;;;;13.13;7.00;;;;;;;;;;5069149;28;20643;-78
2021/11/03 11:55:02;;;;;;;10.97;7.60;;;;;;;;;;5070831;28;20428;-76
2021/11/03 11:57:31;;;;;;;11.57;7.90;;;;;;;;;;5068367;28;20456;-78
2021/11/03 12:00:13;;;;;;;12.50;8.57;;;;;;;;;;5070016;28;20973;-78
2021/11/03 12:02:54;;;;;;;8.87;7.00;;;;;;;;;;5069788;28;20506;-78
2021/11/03 12:05:25;;;;;;;10.73;8.10;;;;;;;;;;5066656;28;20452;-77
2021/11/03 12:08:06;;;;;;;11.93;8.03;;;;;;;;;;5096897;28;20457;-77
2021/11/03 12:10:34;;;;;;;10.93;7.43;;;;;;;;;;5070381;28;20831;-78
2021/11/03 12:13:16;;;;;;;10.90;7.90;;;;;;;;;;5069175;28;20835;-77
2021/11/03 12:15:45;;;;;;;11.40;7.80;;;;;;;;;;5068504;28;20460;-78
2021/11/03 12:18:23;;;;;;;9.27;6.83;;;;;;;;;;5066030;28;20456;-77
2021/11/03 12:20:54;;;;;;;8.63;6.90;;;;;;;;;;5069399;28;20448;-80
2021/11/03 12:23:36;;;;;;;10.50;7.40;;;;;;;;;;5063946;28;20480;-79
2021/11/03 12:26:18;;;;;;;9.80;7.20;;;;;;;;;;5067573;28;20543;-79
2021/11/03 12:28:54;;;;;;;9.30;6.77;;;;;;;;;;5085835;28;20471;-79
2021/11/03 12:31:23;;;;;;;8.37;7.23;;;;;;;;;;5063499;28;20491;-77
2021/11/03 12:34:05;;;;;;;9.00;7.03;;;;;;;;;;5062710;28;20448;-80
2021/11/03 12:36:33;;;;;;;9.77;6.77;;;;;;;;;;5056103;28;20460;-80
2021/11/03 12:39:03;;;;;;;11.40;8.00;;;;;;;;;;5055212;28;20475;-80
2021/11/03 12:41:32;;;;;;;10.37;6.40;;;;;;;;;;5066081;28;20917;-79
2021/11/03 12:44:02;;;;;;;12.00;6.93;;;;;;;;;;5094412;28;20485;-80
2021/11/03 12:46:32;;;;;;;9.77;6.03;;;;;;;;;;5095403;28;20470;-82
2021/11/03 12:49:00;;;;;;;9.37;6.33;;;;;;;;;;5062770;28;20483;-79
2021/11/03 12:51:29;;;;;;;9.40;5.80;;;;;;;;;;5063711;28;20488;-81
2021/11/03 12:53:58;;;;;;;12.40;5.53;;;;;;;;;;5066603;28;20451;-79
2021/11/03 12:56:26;;;;;;;8.60;5.43;;;;;;;;;;5064971;28;20896;-77
2021/11/03 12:58:56;;;;;;;7.77;5.33;;;;;;;;;;5064351;28;20473;-80
2021/11/03 13:01:26;;;;;;;5.80;4.93;;;;;;;;;;5085365;28;20452;-78
2021/11/03 13:03:55;;;;;;;8.07;5.40;;;;;;;;;;5064465;28;20489;-80
2021/11/03 13:06:24;;;;;;;7.63;6.00;;;;;;;;;;5063117;28;20464;-81
2021/11/03 13:08:52;;;;;;;10.63;6.00;;;;;;;;;;5061701;28;20483;-80
2021/11/03 13:11:20;;;;;;;7.77;6.03;;;;;;;;;;5062354;28;20439;-79
2021/11/03 13:13:49;;;;;;;7.60;6.00;;;;;;;;;;5057904;28;20463;-81
2021/11/03 13:16:19;;;;;;;8.20;5.17;;;;;;;;;;5064597;28;20980;-77
2021/11/03 13:18:50;;;;;;;5.33;4.20;;;;;;;;;;5066104;28;20944;-80
2021/11/03 13:21:27;;;;;;;5.57;4.10;;;;;;;;;;5070351;28;20454;-80
2021/11/03 13:23:58;;;;;;;4.67;3.57;;;;;;;;;;5067688;28;20582;-78
2021/11/03 13:26:27;;;;;;;6.03;4.77;;;;;;;;;;5056956;28;20452;-80
2021/11/03 13:28:55;;;;;;;4.88;3.70;;;;;;;;;;5069800;28;20465;-79
2021/11/03 13:31:28;;;;;;;6.73;4.40;;;;;;;;;;5066092;28;20575;-80
2021/11/03 13:34:01;;;;;;;6.53;5.30;;;;;;;;;;5060942;28;20856;-80
2021/11/03 13:36:29;;;;;;;6.40;3.97;;;;;;;;;;5058317;28;20456;-79
2021/11/03 13:38:57;;;;;;;4.10;3.70;;;;;;;;;;5066312;28;20502;-79
2021/11/03 13:41:26;;;;;;;6.07;4.00;;;;;;;;;;5101326;28;20795;-78
2021/11/03 13:44:10;;;;;;;5.53;3.57;;;;;;;;;;5059093;28;20482;-78
2021/11/03 13:46:38;;;;;;;3.67;2.87;;;;;;;;;;5060225;28;20452;-78
2021/11/03 13:49:14;;;;;;;3.60;2.83;;;;;;;;;;5064358;28;20457;-79
2021/11/03 13:51:42;;;;;;;3.40;2.70;;;;;;;;;;5062529;28;20462;-78
2021/11/03 13:54:19;;;;;;;2.77;2.20;;;;;;;;;;5064748;28;20452;-80
2021/11/03 13:56:48;;;;;;;4.50;2.97;;;;;;;;;;5068156;28;20436;-78
2021/11/03 13:59:20;;;;;;;5.50;3.20;;;;;;;;;;5058815;28;20472;-78
2021/11/03 14:01:48;;;;;;;4.43;2.80;;;;;;;;;;5067540;28;20798;-78
2021/11/03 14:04:18;;;;;;;3.00;2.70;;;;;;;;;;5064462;28;20476;-80
2021/11/03 14:07:00;;;;;;;8.17;3.20;;;;;;;;;;5062530;28;20459;-79
2021/11/03 14:09:27;;;;;;;4.57;3.53;;;;;;;;;;5095902;28;20802;-81
2021/11/03 14:11:55;;;;;;;5.47;3.83;;;;;;;;;;5069076;28;20805;-79
2021/11/03 14:14:23;;;;;;;5.53;3.87;;;;;;;;;;5067250;28;20474;-79
2021/11/03 14:16:53;;;;;;;7.70;4.90;;;;;;;;;;5068095;28;20929;-79
2021/11/03 14:19:24;;;;;;;7.47;5.60;;;;;;;;;;5069279;28;20488;-79
2021/11/03 14:21:52;;;;;;;7.03;5.40;;;;;;;;;;5071081;28;20436;-78
2021/11/03 14:24:19;;;;;;;12.33;6.17;;;;;;;;;;5067329;28;20506;-78
2021/11/03 14:26:47;;;;;;;11.30;6.87;;;;;;;;;;5068892;28;20432;-79
2021/11/03 14:29:14;;;;;;;10.07;6.60;;;;;;;;;;5068175;28;20468;-79
2021/11/03 14:31:42;;;;;;;10.10;5.80;;;;;;;;;;5062430;28;20479;-80
2021/11/03 14:34:15;;;;;;;8.70;5.27;;;;;;;;;;5070789;28;20458;-80
2021/11/03 14:36:43;;;;;;;5.60;4.37;;;;;;;;;;5068166;28;20459;-79
2021/11/03 14:39:14;;;;;;;6.30;3.53;;;;;;;;;;5069135;28;20487;-81
2021/11/03 14:41:42;;;;;;;4.70;3.10;;;;;;;;;;5063654;28;20797;-78
2021/11/03 14:44:09;;;;;;;4.13;2.53;;;;;;;;;;5071096;28;20483;-79
2021/11/03 14:46:39;;;;;;;2.90;2.27;;;;;;;;;;5072469;28;20434;-82
2021/11/03 14:49:17;;;;;;;4.10;3.20;;;;;;;;;;5069661;28;20923;-81
2021/11/03 14:51:45;;;;;;;7.13;5.20;;;;;;;;;;5072495;28;20451;-80